createdAt,value
2019-05-02T00:00:14.106Z,95648.63
2019-05-02T00:03:04.473Z,95644.55
2019-05-02T00:05:47.848Z,95635.45
2019-05-02T00:08:37.656Z,95643.02
2019-05-02T00:11:20.580Z,95629.44
2019-05-02T00:14:10.540Z,95637.78
2019-05-02T00:16:52.807Z,95635.64
2019-05-02T00:22:48.150Z,95624.00
2019-05-02T00:25:35.524Z,95630.39
2019-05-02T00:28:17.983Z,95630.60
2019-05-02T00:31:11.564Z,95630.97
2019-05-02T00:33:52.182Z,95621.65
2019-05-02T00:36:41.931Z,95602.24
2019-05-02T00:39:24.734Z,95627.27
2019-05-02T00:42:17.662Z,95607.09
2019-05-02T00:45:06.258Z,95621.84
2019-05-02T00:50:58.544Z,95619.69
2019-05-02T00:53:49.526Z,95612.52
2019-05-02T00:56:32.105Z,95620.09
2019-05-02T00:59:21.910Z,95624.92
2019-05-02T01:02:30.620Z,95613.64
2019-05-02T01:05:20.626Z,95617.92
2019-05-02T01:11:14.298Z,95621.72
2019-05-02T01:13:57.730Z,95623.08
2019-05-02T01:16:49.448Z,95622.55
2019-05-02T01:19:31.986Z,95616.30
2019-05-02T01:22:21.831Z,95616.73
2019-05-02T01:24:52.777Z,95599.18
2019-05-02T01:27:42.618Z,95621.49
2019-05-02T01:30:46.120Z,95614.73
2019-05-02T01:36:32.235Z,95612.97
2019-05-02T01:39:21.948Z,95589.27
2019-05-02T01:42:05.391Z,95615.81
2019-05-02T01:45:14.311Z,95616.37
2019-05-02T01:47:59.039Z,95617.75
2019-05-02T01:50:48.977Z,95617.00
2019-05-02T01:53:38.847Z,95621.05
2019-05-02T01:56:21.783Z,95598.55
2019-05-02T01:59:11.592Z,95616.22
2019-05-02T02:02:01.399Z,95603.75
2019-05-02T02:04:52.081Z,95614.98
2019-05-02T02:07:36.149Z,95608.97
2019-05-02T02:10:37.701Z,95601.39
2019-05-02T02:13:19.892Z,95612.83
2019-05-02T02:19:29.997Z,95605.84
2019-05-02T02:25:40.063Z,95612.20
2019-05-02T02:31:39.727Z,95607.73
2019-05-02T02:34:21.525Z,95604.57
2019-05-02T02:37:13.130Z,95604.00
2019-05-02T02:40:08.385Z,95596.62
2019-05-02T02:42:58.213Z,95602.22
2019-05-02T02:49:14.081Z,95600.36
2019-05-02T02:52:04.933Z,95602.39
2019-05-02T02:54:47.360Z,95609.63
2019-05-02T02:57:25.615Z,95606.64
2019-05-02T03:00:08.061Z,95602.89
2019-05-02T03:05:58.600Z,95575.58
2019-05-02T03:08:49.140Z,95602.69
2019-05-02T03:17:39.623Z,95576.75
2019-05-02T03:20:39.836Z,95577.47
2019-05-02T03:23:14.985Z,95600.81
2019-05-02T03:26:24.526Z,95591.44
2019-05-02T03:29:41.368Z,95594.39
2019-05-02T03:32:31.976Z,95598.98
2019-05-02T03:38:13.425Z,95601.48
2019-05-02T03:44:09.985Z,95580.16
2019-05-02T03:46:27.914Z,95584.05
2019-05-02T03:49:17.766Z,95598.50
2019-05-02T03:52:02.644Z,95591.16
2019-05-02T03:54:52.608Z,95604.25
2019-05-02T03:57:36.331Z,95603.58
2019-05-02T04:00:38.807Z,95605.99
2019-05-02T04:03:21.659Z,95606.06
2019-05-02T04:06:14.171Z,95603.14
2019-05-02T04:08:59.986Z,95594.23
2019-05-02T04:11:48.189Z,95600.39
2019-05-02T04:14:37.967Z,95606.24
2019-05-02T04:17:28.593Z,95606.13
2019-05-02T04:20:09.624Z,95588.31
2019-05-02T04:22:58.658Z,95600.58
2019-05-02T04:25:41.217Z,95595.44
2019-05-02T04:28:31.130Z,95603.36
2019-05-02T04:31:14.567Z,95595.41
2019-05-02T04:34:14.011Z,95594.69
2019-05-02T04:37:00.007Z,95598.36
2019-05-02T04:42:43.510Z,95589.39
2019-05-02T04:45:50.931Z,95598.33
2019-05-02T04:48:18.456Z,95609.81
2019-05-02T04:51:14.230Z,95612.16
2019-05-02T04:53:52.467Z,95586.84
2019-05-02T04:56:39.703Z,95616.62
2019-05-02T04:59:28.437Z,95615.72
2019-05-02T05:02:12.000Z,95616.20
2019-05-02T05:05:17.225Z,95619.91
2019-05-02T05:07:58.709Z,95614.72
2019-05-02T05:10:48.455Z,95593.05
2019-05-02T05:13:31.399Z,95600.91
2019-05-02T05:16:21.135Z,95611.56
2019-05-02T05:19:03.275Z,95590.88
2019-05-02T05:21:34.152Z,95611.70
2019-05-02T05:24:43.225Z,95621.41
2019-05-02T05:27:27.468Z,95605.83
2019-05-02T05:30:18.731Z,95599.08
2019-05-02T05:33:02.785Z,95608.34
2019-05-02T05:35:53.583Z,95619.48
2019-05-02T05:38:44.099Z,95598.18
2019-05-02T05:41:34.764Z,95620.94
2019-05-02T05:44:28.650Z,95611.63
2019-05-02T05:47:12.258Z,95623.59
2019-05-02T05:50:02.556Z,95624.41
2019-05-02T05:52:52.890Z,95620.38
2019-05-02T05:55:43.175Z,95627.25
2019-05-02T05:58:28.429Z,95624.75
2019-05-02T06:04:13.959Z,95618.13
2019-05-02T06:07:20.096Z,95601.66
2019-05-02T06:10:07.816Z,95616.69
2019-05-02T06:12:55.555Z,95610.83
2019-05-02T06:15:39.032Z,95612.05
2019-05-02T06:21:33.001Z,95616.17
2019-05-02T06:24:22.755Z,95611.86
2019-05-02T06:27:04.844Z,95617.46
2019-05-02T06:29:56.164Z,95607.53
2019-05-02T06:32:38.897Z,95615.83
2019-05-02T06:38:24.417Z,95615.34
2019-05-02T06:44:10.390Z,95585.08
2019-05-02T06:47:04.212Z,95602.31
2019-05-02T06:49:44.175Z,95603.56
2019-05-02T06:52:34.648Z,95612.22
2019-05-02T06:55:18.024Z,95605.89
2019-05-02T06:58:08.274Z,95599.45
2019-05-02T07:00:58.172Z,95604.13
2019-05-02T07:03:46.174Z,95605.63
2019-05-02T07:06:42.043Z,95603.48
2019-05-02T07:09:23.512Z,95606.59
2019-05-02T07:12:09.978Z,95597.58
2019-05-02T07:15:01.660Z,95582.70
2019-05-02T07:17:44.392Z,95575.17
2019-05-02T07:23:35.764Z,95582.63
2019-05-02T07:26:25.498Z,95583.02
2019-05-02T07:29:07.450Z,95580.17
2019-05-02T07:31:57.161Z,95579.61
2019-05-02T07:34:39.220Z,95580.31
2019-05-02T07:40:27.206Z,95571.04
2019-05-02T07:43:21.112Z,95573.80
2019-05-02T07:46:04.702Z,95571.52
2019-05-02T07:48:56.629Z,95569.26
2019-05-02T07:51:39.083Z,95549.60
2019-05-02T07:54:28.847Z,95550.25
2019-05-02T07:57:11.409Z,95562.09
2019-05-02T08:00:02.688Z,95555.80
2019-05-02T08:05:09.640Z,95553.81
2019-05-02T08:14:00.637Z,95557.90
2019-05-02T08:16:50.573Z,95554.11
2019-05-02T08:19:37.634Z,95532.02
2019-05-02T08:25:26.822Z,95540.32
2019-05-02T08:31:32.296Z,95542.72
2019-05-02T08:34:30.147Z,95548.95
2019-05-02T08:37:12.180Z,95556.29
2019-05-02T08:40:05.448Z,95552.03
2019-05-02T08:42:46.547Z,95556.08
2019-05-02T08:45:38.299Z,95547.22
2019-05-02T08:48:22.804Z,95559.15
2019-05-02T08:51:12.679Z,95546.33
2019-05-02T08:53:56.867Z,95555.11
2019-05-02T08:57:05.105Z,95539.90
2019-05-02T08:59:48.577Z,95543.54
2019-05-02T09:02:41.573Z,95537.52
2019-05-02T09:05:23.071Z,95540.28
2019-05-02T09:08:14.324Z,95536.64
2019-05-02T09:10:56.909Z,95536.28
2019-05-02T09:13:47.280Z,95534.19
2019-05-02T09:16:37.669Z,95524.91
2019-05-02T09:19:21.239Z,95523.26
2019-05-02T09:22:13.201Z,95520.08
2019-05-02T09:24:56.404Z,95518.14
2019-05-02T09:27:47.162Z,95519.37
2019-05-02T09:30:36.917Z,95516.02
2019-05-02T09:33:27.891Z,95513.65
2019-05-02T09:36:17.706Z,95516.25
2019-05-02T09:39:08.597Z,95508.08
2019-05-02T09:41:58.524Z,95490.68
2019-05-02T09:44:55.686Z,95504.70
2019-05-02T09:47:46.831Z,95499.34
2019-05-02T09:50:30.012Z,95498.58
2019-05-02T09:53:13.267Z,95498.70
2019-05-02T09:56:02.128Z,95476.76
2019-05-02T09:58:48.948Z,95495.63
2019-05-02T10:04:44.047Z,95483.02
2019-05-02T10:07:33.966Z,95490.72
2019-05-02T10:10:18.277Z,95484.56
2019-05-02T10:13:08.849Z,95466.03
2019-05-02T10:15:52.710Z,95476.31
2019-05-02T10:18:43.398Z,95477.78
2019-05-02T10:21:25.695Z,95477.11
2019-05-02T10:24:16.368Z,95466.20
2019-05-02T10:27:08.490Z,95461.50
2019-05-02T10:29:52.463Z,95453.34
2019-05-02T10:32:23.835Z,95463.43
2019-05-02T10:38:15.157Z,95451.78
2019-05-02T10:41:05.142Z,95457.23
2019-05-02T10:43:52.020Z,95454.42
2019-05-02T10:49:59.327Z,95436.53
2019-05-02T10:55:40.047Z,95416.86
2019-05-02T10:58:31.940Z,95434.77
2019-05-02T11:01:16.532Z,95427.13
2019-05-02T11:07:11.941Z,95426.77
2019-05-02T11:10:06.652Z,95401.31
2019-05-02T11:16:16.535Z,95412.81
2019-05-02T11:19:03.870Z,95408.30
2019-05-02T11:24:58.508Z,95394.20
2019-05-02T11:27:41.981Z,95408.95
2019-05-02T11:30:32.605Z,95409.27
2019-05-02T11:36:27.546Z,95405.95
2019-05-02T11:39:20.109Z,95406.91
2019-05-02T11:42:04.568Z,95400.60
2019-05-02T11:44:54.884Z,95403.02
2019-05-02T11:47:45.416Z,95385.73
2019-05-02T11:50:35.847Z,95398.25
2019-05-02T11:53:29.385Z,95399.98
2019-05-02T11:56:13.384Z,95397.15
2019-05-02T11:59:04.250Z,95397.59
2019-05-02T12:04:55.450Z,95395.28
2019-05-02T12:07:36.958Z,95387.31
2019-05-02T12:10:27.929Z,95386.41
2019-05-02T12:13:16.005Z,95391.17
2019-05-02T12:19:09.351Z,95381.33
2019-05-02T12:21:44.899Z,95391.02
2019-05-02T12:24:54.281Z,95390.06
2019-05-02T12:27:37.032Z,95390.26
2019-05-02T12:30:29.009Z,95387.38
2019-05-02T12:33:13.965Z,95388.48
2019-05-02T12:36:05.219Z,95387.78
2019-05-02T12:38:55.644Z,95380.58
2019-05-02T12:41:45.765Z,95382.61
2019-05-02T12:44:31.853Z,95381.59
2019-05-02T12:47:22.528Z,95374.75
2019-05-02T12:50:05.934Z,95374.81
2019-05-02T12:55:52.760Z,95386.51
2019-05-02T12:58:43.151Z,95404.69
2019-05-02T13:01:25.412Z,95378.64
2019-05-02T13:04:15.202Z,95415.59
2019-05-02T13:07:05.076Z,95422.24
2019-05-02T13:09:54.859Z,95428.30
2019-05-02T13:15:38.468Z,95436.59
2019-05-02T13:18:36.238Z,95434.89
2019-05-02T13:21:16.859Z,95442.12
2019-05-02T13:24:18.972Z,95446.24
2019-05-02T13:27:03.988Z,95446.69
2019-05-02T13:35:58.693Z,95471.66
2019-05-02T13:42:12.480Z,95449.50
2019-05-02T13:48:12.234Z,95441.89
2019-05-02T13:51:03.960Z,95454.62
2019-05-02T13:54:04.763Z,95446.66
2019-05-02T13:56:54.564Z,95454.11
2019-05-02T13:59:37.254Z,95452.33
2019-05-02T14:02:46.163Z,95447.52
2019-05-02T14:05:31.782Z,95451.41
2019-05-02T14:08:40.272Z,95449.47
2019-05-02T14:11:43.528Z,95447.34
2019-05-02T14:17:28.250Z,95431.37
2019-05-02T14:20:22.305Z,95427.06
2019-05-02T14:23:04.405Z,95414.30
2019-05-02T14:25:54.226Z,95412.42
2019-05-02T14:28:43.994Z,95409.56
2019-05-02T14:31:33.784Z,95396.16
2019-05-02T14:34:42.769Z,95408.83
2019-05-02T14:37:25.733Z,95408.16
2019-05-02T14:40:34.626Z,95399.69
2019-05-02T14:43:46.673Z,95398.11
2019-05-02T14:46:34.425Z,95394.41
2019-05-02T14:49:16.709Z,95389.34
2019-05-02T14:52:03.018Z,95388.63
2019-05-02T14:54:51.885Z,95381.33
2019-05-02T14:57:27.068Z,95390.26
2019-05-02T15:00:14.252Z,95385.94
2019-05-02T15:02:56.822Z,95388.07
2019-05-02T15:08:47.456Z,95375.34
2019-05-02T15:14:43.126Z,95373.09
2019-05-02T15:17:37.713Z,95365.95
2019-05-02T15:20:18.681Z,95373.58
2019-05-02T15:23:14.409Z,95371.56
2019-05-02T15:25:56.093Z,95338.02
2019-05-02T15:29:06.440Z,95360.03
2019-05-02T15:32:07.497Z,95352.16
2019-05-02T15:35:17.580Z,95354.26
2019-05-02T15:38:02.578Z,95338.30
2019-05-02T15:40:53.744Z,95347.31
2019-05-02T15:43:39.386Z,95342.45
2019-05-02T15:46:28.339Z,95317.83
2019-05-02T15:49:12.354Z,95322.01
2019-05-02T15:52:03.117Z,95338.23
2019-05-02T15:54:46.400Z,95323.08
2019-05-02T15:57:43.095Z,95346.06
2019-05-02T16:06:30.506Z,95316.05
2019-05-02T16:09:15.559Z,95330.97
2019-05-02T16:12:05.923Z,95331.56
2019-05-02T16:14:55.705Z,95340.22
2019-05-02T16:17:45.422Z,95340.62
2019-05-02T16:21:04.755Z,95347.08
2019-05-02T16:24:10.813Z,95333.39
2019-05-02T16:26:48.413Z,95332.27
2019-05-02T16:29:38.144Z,95327.55
2019-05-02T16:38:43.612Z,95331.05
2019-05-02T16:41:33.335Z,95338.42
2019-05-02T16:44:15.947Z,95345.19
2019-05-02T16:47:05.811Z,95345.78
2019-05-02T16:49:53.256Z,95345.19
2019-05-02T16:52:43.622Z,95343.22
2019-05-02T16:55:26.677Z,95338.75
2019-05-02T16:58:16.662Z,95331.83
2019-05-02T17:00:58.747Z,95346.82
2019-05-02T17:03:48.504Z,95347.16
2019-05-02T17:06:32.522Z,95346.30
2019-05-02T17:09:42.461Z,95333.89
2019-05-02T17:12:24.851Z,95346.89
2019-05-02T17:15:35.247Z,95344.23
2019-05-02T17:18:18.290Z,95347.23
2019-05-02T17:21:08.161Z,95346.96
2019-05-02T17:23:52.390Z,95326.92
2019-05-02T17:26:42.480Z,95345.52
2019-05-02T17:29:25.015Z,95340.29
2019-05-02T17:32:15.081Z,95350.47
2019-05-02T17:34:57.283Z,95333.76
2019-05-02T17:37:48.613Z,95356.89
2019-05-02T17:40:31.187Z,95353.03
2019-05-02T17:43:22.669Z,95344.87
2019-05-02T17:46:07.412Z,95354.56
2019-05-02T17:48:56.680Z,95353.63
2019-05-02T17:52:05.240Z,95352.78
2019-05-02T17:54:49.450Z,95356.27
2019-05-02T17:57:34.871Z,95351.66
2019-05-02T18:03:31.083Z,95359.97
2019-05-02T18:06:30.768Z,95365.63
2019-05-02T18:09:04.988Z,95357.75
2019-05-02T18:12:12.671Z,95351.17
2019-05-02T18:14:59.054Z,95343.80
2019-05-02T18:17:43.672Z,95352.03
2019-05-02T18:20:26.550Z,95359.30
2019-05-02T18:23:18.681Z,95376.23
2019-05-02T18:26:02.770Z,95384.55
2019-05-02T18:28:52.652Z,95398.09
2019-05-02T18:31:40.049Z,95391.05
2019-05-02T18:34:28.628Z,95424.27
2019-05-02T18:37:11.054Z,95422.72
2019-05-02T18:40:02.899Z,95467.92
2019-05-02T18:42:44.900Z,95485.52
2019-05-02T18:45:34.687Z,95493.05
2019-05-02T18:48:17.626Z,95504.75
2019-05-02T18:51:07.474Z,95512.89
2019-05-02T18:53:57.902Z,95510.95
2019-05-02T18:56:49.057Z,95517.21
2019-05-02T18:59:33.093Z,95507.14
2019-05-02T19:02:26.399Z,95514.53
2019-05-02T19:05:11.626Z,95513.61
2019-05-02T19:07:58.881Z,95516.14
2019-05-02T19:11:11.922Z,95517.20
2019-05-02T19:13:52.804Z,95513.98
2019-05-02T19:16:42.731Z,95498.50
2019-05-02T19:19:36.696Z,95516.84
2019-05-02T19:22:18.290Z,95533.77
2019-05-02T19:25:08.144Z,95505.42
2019-05-02T19:28:09.179Z,95529.23
2019-05-02T19:34:02.419Z,95535.27
2019-05-02T19:36:53.018Z,95535.62
2019-05-02T19:39:39.046Z,95533.87
2019-05-02T19:42:30.330Z,95527.71
2019-05-02T19:45:16.887Z,95493.48
2019-05-02T19:51:02.423Z,95505.80
2019-05-02T19:57:17.118Z,95520.20
2019-05-02T20:00:02.757Z,95506.28
2019-05-02T20:02:52.283Z,95518.50
2019-05-02T20:05:36.827Z,95524.60
2019-05-02T20:08:26.731Z,95524.14
2019-05-02T20:11:12.453Z,95524.00
2019-05-02T20:14:09.103Z,95523.79
2019-05-02T20:16:52.848Z,95519.40
2019-05-02T20:19:38.201Z,95492.07
2019-05-02T20:22:28.158Z,95521.36
2019-05-02T20:25:18.097Z,95519.44
2019-05-02T20:31:03.311Z,95513.84
2019-05-02T20:36:54.061Z,95509.60
2019-05-02T20:39:43.967Z,95506.86
2019-05-02T20:42:26.376Z,95510.75
2019-05-02T20:45:16.260Z,95510.95
2019-05-02T20:47:58.554Z,95505.73
2019-05-02T20:53:52.594Z,95504.37
2019-05-02T20:56:42.782Z,95501.59
2019-05-02T20:59:26.635Z,95502.97
2019-05-02T21:02:16.374Z,95497.33
2019-05-02T21:04:58.928Z,95497.15
2019-05-02T21:08:07.467Z,95502.21
2019-05-02T21:10:52.308Z,95504.51
2019-05-02T21:13:42.036Z,95497.29
2019-05-02T21:16:24.485Z,95479.64
2019-05-02T21:19:14.228Z,95498.41
2019-05-02T21:21:56.686Z,95480.73
2019-05-02T21:24:46.490Z,95501.50
2019-05-02T21:27:28.608Z,95484.52
2019-05-02T21:30:38.906Z,95477.14
2019-05-02T21:36:31.829Z,95501.12
2019-05-02T21:39:14.262Z,95502.86
2019-05-02T21:42:04.234Z,95492.21
2019-05-02T21:47:50.422Z,95502.84
2019-05-02T22:00:02.454Z,95513.13
2019-05-02T22:02:52.401Z,95512.33
2019-05-02T22:05:34.717Z,95513.13
2019-05-02T22:11:26.213Z,95489.53
2019-05-02T22:14:15.950Z,95504.51
2019-05-02T22:16:59.165Z,95518.49
2019-05-02T22:19:49.086Z,95517.27
2019-05-02T22:25:38.564Z,95512.69
2019-05-02T22:28:29.131Z,95495.27
2019-05-02T22:31:15.022Z,95516.20
2019-05-02T22:34:04.744Z,95512.33
2019-05-02T22:36:47.410Z,95513.33
2019-05-02T22:39:56.295Z,95510.98
2019-05-02T22:42:39.298Z,95487.13
2019-05-02T22:45:29.084Z,95509.02
2019-05-02T22:48:14.143Z,95507.61
2019-05-02T22:50:44.180Z,95505.52
2019-05-02T22:53:33.971Z,95508.25
2019-05-02T22:56:16.142Z,95486.50
2019-05-02T22:59:02.136Z,95509.05
2019-05-02T23:01:45.241Z,95502.65
2019-05-02T23:04:35.261Z,95501.27
2019-05-02T23:07:25.070Z,95500.67
2019-05-02T23:10:08.413Z,95496.20
2019-05-02T23:12:58.694Z,95488.25
2019-05-02T23:15:42.682Z,95489.61
2019-05-02T23:18:32.852Z,95472.33
2019-05-02T23:21:21.711Z,95489.41
2019-05-02T23:27:42.354Z,95489.55
2019-05-02T23:30:33.463Z,95490.34
2019-05-02T23:33:23.387Z,95482.00
2019-05-02T23:36:04.337Z,95482.97
2019-05-02T23:38:54.109Z,95474.64
2019-05-02T23:41:36.608Z,95477.14
2019-05-02T23:44:26.598Z,95472.69
2019-05-02T23:47:17.305Z,95449.33
2019-05-02T23:50:07.231Z,95449.13
2019-05-02T23:52:49.833Z,95471.55
2019-05-02T23:55:39.658Z,95475.83
2019-05-02T23:58:29.462Z,95470.17
